createdAt,value
2017-07-05T00:00:39.429Z,14.88
2017-07-05T00:01:39.432Z,14.86
2017-07-05T00:02:39.094Z,14.84
2017-07-05T00:03:39.105Z,14.84
2017-07-05T00:04:39.395Z,14.91
2017-07-05T00:05:39.412Z,14.91
2017-07-05T00:06:39.381Z,14.91
2017-07-05T00:07:39.399Z,14.92
2017-07-05T00:08:39.391Z,14.98
2017-07-05T00:09:39.371Z,14.94
2017-07-05T00:10:39.379Z,14.96
2017-07-05T00:11:39.059Z,15.06
2017-07-05T00:12:39.054Z,15.07
2017-07-05T00:13:39.373Z,15.09
2017-07-05T00:14:39.350Z,15.1
2017-07-05T00:15:39.030Z,15.11
2017-07-05T00:16:39.333Z,15.17
2017-07-05T00:17:39.350Z,15.16
2017-07-05T00:18:39.343Z,15.19
2017-07-05T00:19:39.343Z,15.23
2017-07-05T00:20:39.321Z,15.25
2017-07-05T00:21:39.329Z,15.35
2017-07-05T00:22:39.317Z,15.32
2017-07-05T00:23:39.001Z,15.32
2017-07-05T00:24:39.289Z,15.32
2017-07-05T00:25:39.306Z,15.31
2017-07-05T00:26:38.985Z,15.34
2017-07-05T00:27:39.288Z,15.46
2017-07-05T00:28:38.955Z,15.36
2017-07-05T00:29:39.276Z,15.43
2017-07-05T00:30:39.287Z,15.43
2017-07-05T00:31:39.277Z,15.44
2017-07-05T00:32:39.256Z,15.38
2017-07-05T00:33:39.285Z,15.46
2017-07-05T00:34:38.943Z,15.38
2017-07-05T00:35:39.264Z,15.46
2017-07-05T00:36:38.931Z,15.43
2017-07-05T00:37:38.942Z,15.43
2017-07-05T00:38:39.230Z,15.47
2017-07-05T00:39:39.239Z,15.44
2017-07-05T00:40:39.216Z,15.47
2017-07-05T00:41:39.233Z,15.41
2017-07-05T00:42:39.229Z,15.41
2017-07-05T00:43:39.211Z,15.5
2017-07-05T00:44:39.202Z,15.44
2017-07-05T00:45:39.194Z,15.44
2017-07-05T00:46:39.205Z,15.39
2017-07-05T00:47:39.193Z,15.39
2017-07-05T00:48:39.206Z,15.35
2017-07-05T00:49:39.181Z,15.35
2017-07-05T00:50:39.190Z,15.32
2017-07-05T00:51:39.160Z,15.44
2017-07-05T00:52:39.175Z,15.34
2017-07-05T00:53:39.163Z,15.35
2017-07-05T00:54:39.115Z,15.38
2017-07-05T00:55:39.162Z,15.34
2017-07-05T00:56:39.180Z,15.38
2017-07-05T00:57:38.836Z,15.47
2017-07-05T00:58:39.149Z,15.46
2017-07-05T00:59:39.132Z,15.46
2017-07-05T01:00:39.137Z,15.41
2017-07-05T01:01:39.125Z,15.44
2017-07-05T01:02:39.135Z,15.43
2017-07-05T01:03:39.131Z,15.47
2017-07-05T01:04:39.123Z,15.47
2017-07-05T01:05:39.108Z,15.46
2017-07-05T01:06:39.114Z,15.44
2017-07-05T01:07:38.776Z,15.46
2017-07-05T01:08:39.113Z,15.36
2017-07-05T01:09:39.092Z,15.44
2017-07-05T01:10:39.143Z,15.43
2017-07-05T01:11:39.093Z,15.44
2017-07-05T01:12:39.080Z,15.51
2017-07-05T01:13:38.759Z,15.39
2017-07-05T01:14:39.074Z,15.53
2017-07-05T01:15:39.059Z,15.54
2017-07-05T01:16:39.042Z,15.59
2017-07-05T01:17:39.054Z,15.59
2017-07-05T01:18:39.050Z,15.57
2017-07-05T01:19:39.055Z,15.56
2017-07-05T01:20:39.052Z,15.6
2017-07-05T01:21:39.024Z,15.56
2017-07-05T01:22:39.041Z,15.5
2017-07-05T01:23:38.719Z,15.54
2017-07-05T01:24:39.026Z,15.51
2017-07-05T01:25:39.083Z,15.51
2017-07-05T01:26:38.996Z,15.57
2017-07-05T01:27:38.696Z,15.56
2017-07-05T01:28:38.996Z,15.6
2017-07-05T01:29:39.013Z,15.51
2017-07-05T01:30:38.705Z,15.54
2017-07-05T01:31:38.680Z,15.54
2017-07-05T01:32:38.972Z,15.54
2017-07-05T01:33:38.966Z,15.51
2017-07-05T01:34:38.667Z,15.59
2017-07-05T01:35:38.966Z,15.54
2017-07-05T01:36:38.981Z,15.53
2017-07-05T01:37:38.948Z,15.57
2017-07-05T01:38:38.963Z,15.56
2017-07-05T01:39:38.953Z,15.54
2017-07-05T01:40:38.644Z,15.54
2017-07-05T01:41:38.937Z,15.54
2017-07-05T01:42:38.956Z,15.56
2017-07-05T01:43:38.949Z,15.53
2017-07-05T01:44:38.933Z,15.53
2017-07-05T01:45:38.917Z,15.54
2017-07-05T01:46:38.602Z,15.64
2017-07-05T01:47:38.915Z,15.47
2017-07-05T01:48:38.603Z,15.6
2017-07-05T01:49:38.897Z,15.56
2017-07-05T01:50:38.921Z,15.56
2017-07-05T01:51:38.902Z,15.57
2017-07-05T01:52:38.896Z,15.53
2017-07-05T01:53:38.892Z,15.6
2017-07-05T01:54:38.884Z,15.56
2017-07-05T01:55:38.553Z,15.57
2017-07-05T01:56:38.885Z,15.62
2017-07-05T01:57:38.861Z,15.53
2017-07-05T01:58:38.875Z,15.51
2017-07-05T01:59:38.860Z,15.54
2017-07-05T02:00:38.553Z,15.51
2017-07-05T02:01:38.536Z,15.6
2017-07-05T02:02:38.840Z,15.54
2017-07-05T02:03:38.839Z,15.59
2017-07-05T02:04:38.837Z,15.5
2017-07-05T02:05:38.848Z,15.53
2017-07-05T02:06:38.866Z,15.57
2017-07-05T02:07:38.821Z,15.62
2017-07-05T02:08:38.823Z,15.47
2017-07-05T02:09:38.820Z,15.59
2017-07-05T02:10:38.798Z,15.57
2017-07-05T02:11:38.816Z,15.57
2017-07-05T02:12:38.798Z,15.57
2017-07-05T02:13:38.483Z,15.57
2017-07-05T02:14:38.785Z,15.6
2017-07-05T02:15:38.467Z,15.65
2017-07-05T02:16:38.470Z,15.64
2017-07-05T02:17:38.763Z,15.68
2017-07-05T02:18:38.763Z,15.67
2017-07-05T02:19:38.449Z,15.64
2017-07-05T02:20:38.772Z,15.67
2017-07-05T02:21:38.781Z,15.69
2017-07-05T02:22:38.423Z,15.71
2017-07-05T02:23:38.433Z,15.69
2017-07-05T02:24:38.742Z,15.71
2017-07-05T02:25:38.426Z,15.78
2017-07-05T02:26:38.728Z,15.71
2017-07-05T02:27:38.752Z,15.65
2017-07-05T02:28:38.403Z,15.74
2017-07-05T02:29:38.731Z,15.72
2017-07-05T02:30:38.389Z,15.74
2017-07-05T02:31:38.720Z,15.74
2017-07-05T02:32:38.705Z,15.72
2017-07-05T02:33:38.707Z,15.71
2017-07-05T02:34:38.392Z,15.75
2017-07-05T02:35:38.696Z,15.76
2017-07-05T02:36:38.370Z,15.74
2017-07-05T02:37:38.683Z,15.74
2017-07-05T02:38:38.687Z,15.69
2017-07-05T02:39:38.368Z,15.68
2017-07-05T02:40:38.663Z,15.74
2017-07-05T02:41:38.042Z,15.69
2017-07-05T02:42:38.661Z,15.75
2017-07-05T02:43:38.347Z,15.72
2017-07-05T02:44:38.640Z,15.71
2017-07-05T02:45:38.652Z,15.76
2017-07-05T02:46:38.638Z,15.74
2017-07-05T02:47:38.646Z,15.65
2017-07-05T02:48:38.308Z,15.69
2017-07-05T02:49:38.638Z,15.68
2017-07-05T02:50:38.635Z,15.65
2017-07-05T02:51:38.615Z,15.69
2017-07-05T02:52:38.292Z,15.67
2017-07-05T02:53:38.625Z,15.64
2017-07-05T02:54:38.287Z,15.67
2017-07-05T02:55:38.600Z,15.6
2017-07-05T02:56:38.585Z,15.56
2017-07-05T02:57:38.595Z,15.67
2017-07-05T02:58:38.263Z,15.6
2017-07-05T02:59:38.275Z,15.53
2017-07-05T03:00:38.259Z,15.56
2017-07-05T03:01:38.588Z,15.54
2017-07-05T03:02:38.572Z,15.54
2017-07-05T03:03:38.244Z,15.5
2017-07-05T03:04:38.548Z,15.5
2017-07-05T03:05:38.252Z,15.53
2017-07-05T03:06:38.287Z,15.5
2017-07-05T03:07:38.549Z,15.51
2017-07-05T03:08:38.238Z,15.49
2017-07-05T03:09:38.229Z,15.39
2017-07-05T03:10:38.254Z,15.41
2017-07-05T03:11:38.211Z,15.49
2017-07-05T03:12:38.214Z,15.46
2017-07-05T03:13:38.218Z,15.46
2017-07-05T03:14:38.507Z,15.47
2017-07-05T03:15:37.886Z,15.44
2017-07-05T03:16:38.498Z,15.54
2017-07-05T03:17:38.197Z,15.44
2017-07-05T03:18:38.170Z,15.47
2017-07-05T03:19:38.179Z,15.44
2017-07-05T03:20:38.170Z,15.38
2017-07-05T03:21:38.174Z,15.5
2017-07-05T03:22:38.161Z,15.43
2017-07-05T03:23:38.162Z,15.44
2017-07-05T03:24:38.151Z,15.5
2017-07-05T03:25:38.138Z,15.46
2017-07-05T03:26:38.465Z,15.41
2017-07-05T03:27:38.144Z,15.43
2017-07-05T03:28:38.457Z,15.46
2017-07-05T03:29:38.124Z,15.41
2017-07-05T03:30:38.140Z,15.51
2017-07-05T03:31:38.125Z,15.54
2017-07-05T03:32:38.425Z,15.53
2017-07-05T03:33:38.435Z,15.54
2017-07-05T03:34:38.099Z,15.54
2017-07-05T03:35:38.107Z,15.5
2017-07-05T03:36:38.086Z,15.53
2017-07-05T03:37:38.418Z,15.69
2017-07-05T03:38:38.096Z,15.67
2017-07-05T03:39:38.088Z,15.71
2017-07-05T03:40:38.065Z,15.75
2017-07-05T03:41:38.082Z,15.8
2017-07-05T03:42:38.073Z,15.84
2017-07-05T03:43:38.379Z,15.87
2017-07-05T03:44:38.383Z,15.89
2017-07-05T03:45:38.056Z,15.84
2017-07-05T03:46:38.058Z,15.89
2017-07-05T03:47:37.719Z,15.96
2017-07-05T03:48:38.050Z,15.97
2017-07-05T03:49:38.041Z,16.02
2017-07-05T03:50:38.358Z,15.97
2017-07-05T03:51:38.022Z,16.09
2017-07-05T03:52:38.035Z,16.08
2017-07-05T03:53:38.317Z,16.08
2017-07-05T03:54:38.010Z,16.21
2017-07-05T03:55:38.018Z,16.11
2017-07-05T03:56:38.019Z,16.15
2017-07-05T03:57:38.004Z,16.15
2017-07-05T03:58:37.994Z,16.27
2017-07-05T03:59:38.303Z,16.24
2017-07-05T04:00:38.320Z,16.23
2017-07-05T04:01:37.975Z,16.33
2017-07-05T04:02:37.993Z,16.41
2017-07-05T04:03:38.286Z,16.33
2017-07-05T04:04:37.981Z,16.43
2017-07-05T04:05:38.270Z,16.48
2017-07-05T04:06:37.972Z,16.49
2017-07-05T04:07:37.965Z,16.6
2017-07-05T04:08:37.970Z,16.53
2017-07-05T04:09:37.939Z,16.67
2017-07-05T04:10:38.253Z,16.76
2017-07-05T04:11:37.949Z,16.71
2017-07-05T04:12:38.271Z,16.75
2017-07-05T04:13:38.250Z,16.83
2017-07-05T04:14:37.935Z,16.88
2017-07-05T04:15:37.925Z,16.91
2017-07-05T04:16:38.245Z,17.06
2017-07-05T04:17:37.932Z,17.06
2017-07-05T04:18:38.226Z,17.14
2017-07-05T04:19:37.926Z,17.08
2017-07-05T04:20:37.905Z,17.22
2017-07-05T04:21:37.911Z,17.38
2017-07-05T04:22:38.212Z,17.43
2017-07-05T04:23:38.205Z,17.49
2017-07-05T04:24:37.896Z,17.55
2017-07-05T04:25:38.208Z,17.66
2017-07-05T04:26:38.204Z,17.72
2017-07-05T04:27:37.885Z,17.89
2017-07-05T04:28:37.894Z,17.9
2017-07-05T04:29:37.881Z,17.96
2017-07-05T04:30:37.552Z,18.11
2017-07-05T04:31:37.859Z,18.2
2017-07-05T04:32:37.546Z,18.23
2017-07-05T04:33:37.549Z,18.26
2017-07-05T04:34:37.856Z,18.41
2017-07-05T04:35:37.906Z,18.36
2017-07-05T04:36:38.174Z,18.45
2017-07-05T04:37:38.168Z,18.6
2017-07-05T04:38:37.882Z,18.55
2017-07-05T04:39:37.846Z,18.62
2017-07-05T04:40:37.532Z,18.67
2017-07-05T04:41:37.520Z,18.67
2017-07-05T04:42:37.513Z,18.67
2017-07-05T04:43:38.134Z,18.7
2017-07-05T04:44:37.830Z,18.66
2017-07-05T04:45:37.829Z,18.62
2017-07-05T04:46:38.133Z,18.55
2017-07-05T04:47:38.128Z,18.57
2017-07-05T04:48:37.823Z,18.55
2017-07-05T04:49:38.127Z,18.54
2017-07-05T04:50:38.133Z,18.62
2017-07-05T04:51:37.806Z,18.55
2017-07-05T04:52:38.160Z,18.55
2017-07-05T04:53:38.180Z,18.62
2017-07-05T04:54:37.809Z,18.65
2017-07-05T04:55:37.481Z,18.67
2017-07-05T04:56:37.804Z,18.65
2017-07-05T04:57:37.782Z,18.67
2017-07-05T04:58:37.471Z,18.67
2017-07-05T04:59:38.102Z,18.67
2017-07-05T05:00:37.796Z,18.69
2017-07-05T05:01:38.110Z,18.63
2017-07-05T05:02:37.774Z,18.62
2017-07-05T05:03:38.092Z,18.57
2017-07-05T05:04:37.766Z,18.58
2017-07-05T05:05:37.462Z,18.57
2017-07-05T05:06:37.763Z,18.57
2017-07-05T05:07:37.765Z,18.51
2017-07-05T05:08:37.748Z,18.57
2017-07-05T05:09:38.080Z,18.47
2017-07-05T05:10:38.063Z,18.51
2017-07-05T05:11:37.816Z,18.55
2017-07-05T05:12:37.741Z,18.52
2017-07-05T05:13:38.078Z,18.6
2017-07-05T05:14:37.738Z,18.55
2017-07-05T05:15:37.428Z,18.55
2017-07-05T05:16:38.061Z,18.6
2017-07-05T05:17:38.055Z,18.57
2017-07-05T05:18:37.725Z,18.54
2017-07-05T05:19:37.415Z,18.57
2017-07-05T05:20:38.048Z,18.52
2017-07-05T05:21:38.052Z,18.54
2017-07-05T05:22:37.721Z,18.63
2017-07-05T05:23:37.764Z,18.66
2017-07-05T05:24:37.702Z,18.66
2017-07-05T05:25:38.044Z,18.76
2017-07-05T05:26:38.017Z,18.69
2017-07-05T05:27:37.712Z,18.73
2017-07-05T05:28:38.066Z,18.72
2017-07-05T05:29:38.023Z,18.72
2017-07-05T05:30:37.697Z,18.8
2017-07-05T05:31:37.705Z,18.75
2017-07-05T05:32:37.992Z,18.76
2017-07-05T05:33:37.689Z,18.67
2017-07-05T05:34:38.013Z,18.72
2017-07-05T05:35:37.688Z,18.67
2017-07-05T05:36:37.697Z,18.65
2017-07-05T05:37:37.680Z,18.7
2017-07-05T05:38:37.681Z,18.66
2017-07-05T05:39:37.354Z,18.66
2017-07-05T05:40:37.654Z,18.66
2017-07-05T05:41:37.361Z,18.63
2017-07-05T05:42:37.339Z,18.65
2017-07-05T05:43:37.982Z,18.63
2017-07-05T05:44:37.651Z,18.65
2017-07-05T05:45:37.663Z,18.66
2017-07-05T05:46:37.974Z,18.66
2017-07-05T05:47:37.978Z,18.55
2017-07-05T05:48:37.962Z,18.57
2017-07-05T05:49:37.643Z,18.6
2017-07-05T05:50:37.656Z,18.51
2017-07-05T05:51:37.946Z,18.41
2017-07-05T05:52:37.972Z,18.42
2017-07-05T05:53:37.953Z,18.45
2017-07-05T05:54:37.322Z,18.33
2017-07-05T05:55:37.624Z,18.36
2017-07-05T05:56:37.951Z,18.3
2017-07-05T05:57:37.928Z,18.3
2017-07-05T05:58:37.944Z,18.36
2017-07-05T05:59:37.936Z,18.3
2017-07-05T06:00:37.940Z,18.23
2017-07-05T06:01:37.926Z,18.26
2017-07-05T06:02:37.612Z,18.15
2017-07-05T06:03:37.925Z,18.18
2017-07-05T06:04:37.610Z,18.25
2017-07-05T06:05:37.932Z,18.17
2017-07-05T06:06:37.924Z,18.14
2017-07-05T06:07:37.926Z,18.11
2017-07-05T06:08:37.916Z,18.11
2017-07-05T06:09:37.908Z,18.14
2017-07-05T06:10:37.907Z,18.1
2017-07-05T06:11:37.587Z,18.08
2017-07-05T06:12:37.593Z,18.12
2017-07-05T06:13:37.890Z,18.03
2017-07-05T06:14:37.895Z,18.07
2017-07-05T06:15:37.568Z,18
2017-07-05T06:16:37.892Z,17.9
2017-07-05T06:17:37.885Z,17.81
2017-07-05T06:18:37.876Z,17.84
2017-07-05T06:19:37.877Z,17.68
2017-07-05T06:20:37.892Z,17.64
2017-07-05T06:21:37.565Z,17.56
2017-07-05T06:22:37.544Z,17.46
2017-07-05T06:23:37.547Z,17.36
2017-07-05T06:24:37.546Z,17.28
2017-07-05T06:25:37.866Z,17.25
2017-07-05T06:26:37.849Z,17.22
2017-07-05T06:27:37.856Z,17.25
2017-07-05T06:28:37.843Z,17.07
2017-07-05T06:29:37.857Z,17.19
2017-07-05T06:30:37.842Z,17.12
2017-07-05T06:31:37.843Z,17.06
2017-07-05T06:32:37.860Z,17.01
2017-07-05T06:33:37.194Z,17
2017-07-05T06:34:37.833Z,16.96
2017-07-05T06:35:37.827Z,16.85
2017-07-05T06:36:37.509Z,16.73
2017-07-05T06:37:37.828Z,16.71
2017-07-05T06:38:37.801Z,16.64
2017-07-05T06:39:37.811Z,16.58
2017-07-05T06:40:37.798Z,16.61
2017-07-05T06:41:37.815Z,16.56
2017-07-05T06:42:37.801Z,16.49
2017-07-05T06:43:37.810Z,16.42
2017-07-05T06:44:37.788Z,16.34
2017-07-05T06:45:38.101Z,16.34
2017-07-05T06:46:37.781Z,16.31
2017-07-05T06:47:37.481Z,16.33
2017-07-05T06:48:37.772Z,16.31
2017-07-05T06:49:37.514Z,16.33
2017-07-05T06:50:37.784Z,16.38
2017-07-05T06:51:37.459Z,16.28
2017-07-05T06:52:37.444Z,16.38
2017-07-05T06:53:37.751Z,16.39
2017-07-05T06:54:37.762Z,16.33
2017-07-05T06:55:37.761Z,16.31
2017-07-05T06:56:37.741Z,16.21
2017-07-05T06:57:37.751Z,16.24
2017-07-05T06:58:37.421Z,16.15
2017-07-05T06:59:37.757Z,15.96
2017-07-05T07:00:37.721Z,15.97
2017-07-05T07:01:37.741Z,16
2017-07-05T07:02:37.722Z,15.92
2017-07-05T07:03:37.722Z,15.9
2017-07-05T07:04:37.716Z,15.82
2017-07-05T07:05:37.721Z,15.65
2017-07-05T07:06:37.717Z,15.67
2017-07-05T07:07:37.712Z,15.68
2017-07-05T07:08:37.378Z,15.57
2017-07-05T07:09:37.685Z,15.49
2017-07-05T07:10:37.699Z,15.5
2017-07-05T07:11:37.694Z,15.56
2017-07-05T07:12:37.693Z,15.5
2017-07-05T07:13:37.682Z,15.56
2017-07-05T07:14:37.370Z,15.5
2017-07-05T07:15:37.347Z,15.51
2017-07-05T07:16:37.681Z,15.43
2017-07-05T07:17:37.665Z,15.49
2017-07-05T07:18:37.038Z,15.46
2017-07-05T07:19:37.342Z,15.32
2017-07-05T07:20:37.341Z,15.36
2017-07-05T07:21:37.640Z,15.49
2017-07-05T07:22:37.326Z,15.51
2017-07-05T07:23:37.323Z,15.36
2017-07-05T07:24:37.623Z,15.39
2017-07-05T07:25:37.620Z,15.35
2017-07-05T07:26:37.630Z,15.39
2017-07-05T07:27:37.622Z,15.38
2017-07-05T07:28:37.633Z,15.38
2017-07-05T07:29:37.289Z,15.38
2017-07-05T07:30:37.614Z,15.39
2017-07-05T07:31:37.602Z,15.44
2017-07-05T07:32:37.602Z,15.59
2017-07-05T07:33:36.959Z,15.71
2017-07-05T07:34:37.600Z,15.76
2017-07-05T07:35:37.603Z,15.9
2017-07-05T07:36:37.598Z,16.08
2017-07-05T07:37:37.567Z,16.11
2017-07-05T07:38:37.566Z,16.14
2017-07-05T07:39:37.581Z,16.25
2017-07-05T07:40:37.586Z,16.2
2017-07-05T07:41:37.572Z,16.25
2017-07-05T07:42:37.555Z,16.2
2017-07-05T07:43:37.570Z,16.21
2017-07-05T07:44:37.235Z,16.08
2017-07-05T07:45:37.555Z,16.01
2017-07-05T07:46:36.916Z,16.01
2017-07-05T07:47:37.598Z,15.89
2017-07-05T07:48:37.541Z,15.86
2017-07-05T07:49:37.533Z,15.72
2017-07-05T07:50:36.912Z,15.72
2017-07-05T07:51:37.208Z,15.69
2017-07-05T07:52:37.534Z,15.6
2017-07-05T07:53:36.883Z,15.5
2017-07-05T07:54:37.529Z,15.49
2017-07-05T07:55:37.207Z,15.47
2017-07-05T07:56:36.884Z,15.28
2017-07-05T07:57:36.882Z,15.32
2017-07-05T07:58:37.184Z,15.32
2017-07-05T07:59:37.493Z,15.31
2017-07-05T08:00:36.873Z,15.31
2017-07-05T08:01:37.495Z,15.23
2017-07-05T08:02:36.858Z,15.23
2017-07-05T08:03:37.474Z,15.21
2017-07-05T08:04:37.479Z,15.31
2017-07-05T08:05:37.471Z,15.38
2017-07-05T08:06:37.482Z,15.32
2017-07-05T08:07:37.473Z,15.38
2017-07-05T08:08:37.481Z,15.38
2017-07-05T08:09:37.134Z,15.35
2017-07-05T08:10:37.133Z,15.43
2017-07-05T08:11:37.456Z,15.35
2017-07-05T08:12:37.139Z,15.27
2017-07-05T08:13:37.426Z,15.23
2017-07-05T08:14:37.136Z,15.27
2017-07-05T08:15:37.442Z,15.35
2017-07-05T08:16:36.805Z,15.32
2017-07-05T08:17:37.428Z,15.28
2017-07-05T08:18:37.426Z,15.35
2017-07-05T08:19:37.416Z,15.38
2017-07-05T08:20:37.414Z,15.29
2017-07-05T08:21:37.397Z,15.39
2017-07-05T08:22:37.090Z,15.38
2017-07-05T08:23:37.087Z,15.49
2017-07-05T08:24:37.392Z,15.43
2017-07-05T08:25:36.753Z,15.44
2017-07-05T08:26:37.077Z,15.49
2017-07-05T08:27:37.380Z,15.51
2017-07-05T08:28:37.383Z,15.53
2017-07-05T08:29:37.387Z,15.56
2017-07-05T08:30:36.736Z,15.5
2017-07-05T08:31:37.364Z,15.68
2017-07-05T08:32:37.033Z,15.76
2017-07-05T08:33:37.368Z,15.9
2017-07-05T08:34:37.342Z,16.09
2017-07-05T08:35:37.348Z,16.07
2017-07-05T08:36:37.029Z,16.23
2017-07-05T08:37:37.346Z,16.24
2017-07-05T08:38:37.703Z,16.46
2017-07-05T08:39:37.012Z,16.58
2017-07-05T08:40:37.014Z,16.66
2017-07-05T08:41:37.306Z,16.73
2017-07-05T08:42:36.992Z,16.88
2017-07-05T08:43:36.681Z,17.03
2017-07-05T08:44:37.320Z,17.19
2017-07-05T08:45:36.678Z,17.3
2017-07-05T08:46:37.294Z,17.4
2017-07-05T08:47:37.293Z,17.52
2017-07-05T08:48:36.969Z,17.56
2017-07-05T08:49:37.309Z,17.68
2017-07-05T08:50:36.972Z,17.89
2017-07-05T08:51:37.301Z,17.96
2017-07-05T08:52:37.290Z,18.1
2017-07-05T08:53:37.290Z,18.29
2017-07-05T08:54:36.955Z,18.41
2017-07-05T08:55:36.973Z,18.65
2017-07-05T08:56:36.958Z,18.78
2017-07-05T08:57:37.273Z,18.9
2017-07-05T08:58:37.282Z,18.95
2017-07-05T08:59:37.265Z,19.07
2017-07-05T09:00:37.262Z,19.16
2017-07-05T09:01:36.941Z,19.28
2017-07-05T09:02:36.952Z,19.39
2017-07-05T09:03:37.264Z,19.37
2017-07-05T09:04:37.235Z,19.56
2017-07-05T09:05:36.629Z,19.66
2017-07-05T09:06:37.246Z,19.73
2017-07-05T09:07:37.256Z,19.88
2017-07-05T09:08:37.234Z,19.92
2017-07-05T09:09:37.256Z,19.92
2017-07-05T09:10:37.252Z,20.02
2017-07-05T09:11:37.247Z,20.1
2017-07-05T09:12:37.234Z,20.23
2017-07-05T09:13:36.935Z,20.39
2017-07-05T09:14:37.241Z,20.54
2017-07-05T09:15:36.923Z,20.55
2017-07-05T09:16:37.228Z,20.7
2017-07-05T09:17:37.220Z,20.8
2017-07-05T09:18:37.239Z,20.95
2017-07-05T09:19:37.232Z,21.14
2017-07-05T09:20:37.241Z,21.34
2017-07-05T09:21:37.218Z,21.49
2017-07-05T09:22:36.917Z,21.64
2017-07-05T09:23:37.222Z,21.8
2017-07-05T09:24:37.237Z,21.94
2017-07-05T09:25:37.222Z,22.05
2017-07-05T09:26:37.244Z,22.2
2017-07-05T09:27:37.239Z,22.33
2017-07-05T09:28:37.240Z,22.46
2017-07-05T09:29:36.899Z,22.61
2017-07-05T09:30:36.921Z,22.8
2017-07-05T09:31:36.918Z,22.86
2017-07-05T09:32:37.228Z,22.94
2017-07-05T09:33:37.224Z,23.04
2017-07-05T09:34:37.254Z,23.1
2017-07-05T09:35:36.927Z,23.16
2017-07-05T09:36:36.928Z,23.28
2017-07-05T09:37:37.223Z,23.47
2017-07-05T09:38:37.246Z,23.58
2017-07-05T09:39:37.238Z,23.78
2017-07-05T09:40:37.255Z,24.09
2017-07-05T09:41:37.237Z,24.18
2017-07-05T09:42:37.317Z,24.34
2017-07-05T09:43:37.271Z,24.55
2017-07-05T09:44:37.256Z,24.78
2017-07-05T09:45:37.274Z,24.87
2017-07-05T09:46:37.265Z,25.06
2017-07-05T09:47:36.937Z,25.24
2017-07-05T09:48:37.256Z,25.39
2017-07-05T09:49:37.253Z,25.61
2017-07-05T09:50:36.637Z,25.77
2017-07-05T09:51:36.957Z,25.99
2017-07-05T09:52:36.967Z,26.23
2017-07-05T09:53:36.954Z,26.47
2017-07-05T09:54:37.285Z,26.63
2017-07-05T09:55:37.290Z,26.81
2017-07-05T09:56:37.294Z,26.85
2017-07-05T09:57:36.986Z,26.88
2017-07-05T09:58:36.979Z,27
2017-07-05T09:59:37.317Z,27
2017-07-05T10:00:36.991Z,27.14
2017-07-05T10:01:37.013Z,27.12
2017-07-05T10:02:37.336Z,27.22
2017-07-05T10:03:37.333Z,27.28
2017-07-05T10:04:37.342Z,27.14
2017-07-05T10:05:37.330Z,27.13
2017-07-05T10:06:37.349Z,27.1
2017-07-05T10:07:37.359Z,27.06
2017-07-05T10:08:37.370Z,27.09
2017-07-05T10:09:37.351Z,27.13
2017-07-05T10:10:37.374Z,27.17
2017-07-05T10:11:37.044Z,27.18
2017-07-05T10:12:37.387Z,27.32
2017-07-05T10:13:37.361Z,27.44
2017-07-05T10:14:37.388Z,27.57
2017-07-05T10:15:37.072Z,27.74
2017-07-05T10:16:37.400Z,27.85
2017-07-05T10:17:37.400Z,28.02
2017-07-05T10:18:37.393Z,28.11
2017-07-05T10:19:37.404Z,28.17
2017-07-05T10:20:37.426Z,28.29
2017-07-05T10:21:37.414Z,28.37
2017-07-05T10:22:37.432Z,28.4
2017-07-05T10:23:37.433Z,28.43
2017-07-05T10:24:37.458Z,28.55
2017-07-05T10:25:37.433Z,28.51
2017-07-05T10:26:37.144Z,28.61
2017-07-05T10:27:37.135Z,28.48
2017-07-05T10:28:37.476Z,28.39
2017-07-05T10:29:37.471Z,28.39
2017-07-05T10:30:37.485Z,28.37
2017-07-05T10:31:36.850Z,28.21
2017-07-05T10:32:37.184Z,28.11
2017-07-05T10:33:37.169Z,28.06
2017-07-05T10:34:37.493Z,28
2017-07-05T10:35:37.184Z,27.9
2017-07-05T10:36:37.514Z,27.84
2017-07-05T10:37:37.529Z,27.75
2017-07-05T10:38:37.514Z,27.63
2017-07-05T10:39:37.212Z,27.36
2017-07-05T10:40:37.271Z,27.21
2017-07-05T10:41:37.540Z,26.99
2017-07-05T10:42:37.535Z,26.92
2017-07-05T10:43:37.561Z,26.8
2017-07-05T10:44:37.547Z,26.92
2017-07-05T10:45:37.566Z,27.02
2017-07-05T10:46:37.245Z,27.02
2017-07-05T10:47:37.264Z,27.06
2017-07-05T10:48:37.266Z,27.36
2017-07-05T10:49:37.576Z,27.46
2017-07-05T10:50:37.263Z,27.47
2017-07-05T10:51:37.592Z,27.62
2017-07-05T10:52:37.598Z,27.77
2017-07-05T10:53:37.294Z,27.74
2017-07-05T10:54:36.973Z,27.63
2017-07-05T10:55:36.984Z,27.6
2017-07-05T10:56:37.299Z,27.43
2017-07-05T10:57:37.639Z,27.4
2017-07-05T10:58:37.618Z,27.49
2017-07-05T10:59:37.648Z,27.4
2017-07-05T11:00:37.367Z,27.44
2017-07-05T11:01:37.338Z,27.31
2017-07-05T11:02:37.642Z,27.29
2017-07-05T11:03:37.658Z,27.41
2017-07-05T11:04:37.335Z,27.55
2017-07-05T11:05:37.673Z,27.6
2017-07-05T11:06:37.679Z,27.74
2017-07-05T11:07:37.688Z,27.81
2017-07-05T11:08:37.346Z,27.93
2017-07-05T11:09:37.679Z,27.97
2017-07-05T11:10:37.695Z,28
2017-07-05T11:11:37.703Z,28
2017-07-05T11:12:37.694Z,27.9
2017-07-05T11:13:37.396Z,27.88
2017-07-05T11:14:37.703Z,27.87
2017-07-05T11:15:37.727Z,27.9
2017-07-05T11:16:37.724Z,27.77
2017-07-05T11:17:37.734Z,27.7
2017-07-05T11:18:37.722Z,27.63
2017-07-05T11:19:37.737Z,27.59
2017-07-05T11:20:37.428Z,27.51
2017-07-05T11:21:37.436Z,27.43
2017-07-05T11:22:37.747Z,27.36
2017-07-05T11:23:37.434Z,27.32
2017-07-05T11:24:37.747Z,27.39
2017-07-05T11:25:37.773Z,27.4
2017-07-05T11:26:37.450Z,27.57
2017-07-05T11:27:37.776Z,27.67
2017-07-05T11:28:37.769Z,27.77
2017-07-05T11:29:37.472Z,27.82
2017-07-05T11:30:37.783Z,27.96
2017-07-05T11:31:37.803Z,28.09
2017-07-05T11:32:37.164Z,28.24
2017-07-05T11:33:37.499Z,28.39
2017-07-05T11:34:37.490Z,28.37
2017-07-05T11:35:37.809Z,28.55
2017-07-05T11:36:37.501Z,28.73
2017-07-05T11:37:37.523Z,28.86
2017-07-05T11:38:37.822Z,28.86
2017-07-05T11:39:37.832Z,29.06
2017-07-05T11:40:37.857Z,29.12
2017-07-05T11:41:37.857Z,29.14
2017-07-05T11:42:37.849Z,29.04
2017-07-05T11:43:37.876Z,28.98
2017-07-05T11:44:37.852Z,28.92
2017-07-05T11:45:37.566Z,28.93
2017-07-05T11:46:37.869Z,28.92
2017-07-05T11:47:37.889Z,28.89
2017-07-05T11:48:37.881Z,28.89
2017-07-05T11:49:37.898Z,29
2017-07-05T11:50:37.901Z,28.92
2017-07-05T11:51:37.606Z,28.95
2017-07-05T11:52:37.592Z,29.06
2017-07-05T11:53:37.929Z,29.21
2017-07-05T11:54:37.621Z,29.39
2017-07-05T11:55:37.615Z,29.43
2017-07-05T11:56:37.931Z,29.36
2017-07-05T11:57:37.941Z,29.14
2017-07-05T11:58:37.951Z,28.89
2017-07-05T11:59:37.965Z,28.71
2017-07-05T12:00:37.975Z,28.52
2017-07-05T12:01:37.953Z,28.43
2017-07-05T12:02:37.993Z,28.36
2017-07-05T12:03:37.360Z,28.17
2017-07-05T12:04:37.661Z,28.07
2017-07-05T12:05:37.370Z,28.06
2017-07-05T12:06:37.361Z,28.19
2017-07-05T12:07:38.008Z,28.17
2017-07-05T12:08:37.700Z,28.22
2017-07-05T12:09:38.025Z,28.17
2017-07-05T12:10:37.720Z,28.15
2017-07-05T12:11:38.034Z,28.18
2017-07-05T12:12:37.724Z,28.31
2017-07-05T12:13:38.088Z,28.43
2017-07-05T12:14:37.744Z,28.39
2017-07-05T12:15:38.054Z,28.36
2017-07-05T12:16:37.444Z,28.3
2017-07-05T12:17:37.758Z,28.3
2017-07-05T12:18:37.445Z,28.27
2017-07-05T12:19:38.079Z,28.07
2017-07-05T12:20:37.787Z,27.9
2017-07-05T12:21:37.770Z,27.72
2017-07-05T12:22:38.108Z,27.7
2017-07-05T12:23:37.804Z,27.93
2017-07-05T12:24:37.806Z,27.87
2017-07-05T12:25:37.798Z,27.72
2017-07-05T12:26:37.803Z,27.62
2017-07-05T12:27:37.825Z,27.43
2017-07-05T12:28:38.148Z,27.32
2017-07-05T12:29:37.823Z,27.04
2017-07-05T12:30:37.875Z,26.91
2017-07-05T12:31:37.851Z,26.82
2017-07-05T12:32:38.168Z,26.87
2017-07-05T12:33:37.856Z,26.89
2017-07-05T12:34:37.548Z,27.06
2017-07-05T12:35:37.854Z,27.1
2017-07-05T12:36:37.883Z,27.14
2017-07-05T12:37:37.873Z,27.31
2017-07-05T12:38:38.211Z,27.03
2017-07-05T12:39:37.880Z,26.92
2017-07-05T12:40:37.902Z,26.7
2017-07-05T12:41:38.196Z,26.55
2017-07-05T12:42:37.902Z,26.39
2017-07-05T12:43:38.217Z,26.43
2017-07-05T12:44:38.229Z,26.37
2017-07-05T12:45:37.923Z,26.43
2017-07-05T12:46:37.918Z,26.25
2017-07-05T12:47:37.921Z,26.01
2017-07-05T12:48:38.245Z,25.87
2017-07-05T12:49:38.267Z,25.83
2017-07-05T12:50:38.253Z,25.83
2017-07-05T12:51:38.268Z,25.75
2017-07-05T12:52:38.264Z,25.69
2017-07-05T12:53:38.271Z,25.75
2017-07-05T12:54:37.961Z,25.95
2017-07-05T12:55:37.967Z,26.06